Time;durP1;ratioP1;P1;durP2;ratioP2;P2;SDS_P1;SDS_P2;PMS_P1;PMS_P2;Temp;Humidity;BMP_temperature;BMP_pressure;BME280_temperature;BME280_humidity;BME280_pressure;Samples;Min_cycle;Max_cycle;Signal;HPM_P1;HPM_P2
2023/09/11 00:00:46;;;;;;;96.35;36.85;;;;;;;;;;4997770;28;20426;-72
2023/09/11 00:03:12;;;;;;;108.75;36.58;;;;;;;;;;4996486;28;20080;-73
2023/09/11 00:05:39;;;;;;;93.88;37.33;;;;;;;;;;4998147;28;20170;-73
2023/09/11 00:08:05;;;;;;;95.80;37.10;;;;;;;;;;4997458;28;20057;-74
2023/09/11 00:10:32;;;;;;;99.05;36.60;;;;;;;;;;4996974;28;20057;-75
2023/09/11 00:12:59;;;;;;;103.25;37.42;;;;;;;;;;4997706;28;20048;-73
2023/09/11 00:15:25;;;;;;;99.30;37.33;;;;;;;;;;4996287;28;20092;-73
2023/09/11 00:17:51;;;;;;;104.05;37.90;;;;;;;;;;4995992;28;20046;-73
2023/09/11 00:20:17;;;;;;;101.35;37.33;;;;;;;;;;4994911;28;20060;-73
2023/09/11 00:22:43;;;;;;;107.15;36.95;;;;;;;;;;4995973;28;20046;-73
2023/09/11 00:25:10;;;;;;;101.18;37.65;;;;;;;;;;4996459;28;20109;-73
2023/09/11 00:27:37;;;;;;;106.18;36.90;;;;;;;;;;4994647;28;20103;-73
2023/09/11 00:30:03;;;;;;;97.82;37.22;;;;;;;;;;4994679;28;20065;-73
2023/09/11 00:32:30;;;;;;;96.57;38.17;;;;;;;;;;4978414;28;20087;-73
2023/09/11 00:34:56;;;;;;;100.10;39.15;;;;;;;;;;4994612;28;20458;-73
2023/09/11 00:37:22;;;;;;;110.57;39.17;;;;;;;;;;4994250;28;20050;-73
2023/09/11 00:39:48;;;;;;;96.80;38.42;;;;;;;;;;4995450;28;20101;-72
2023/09/11 00:42:14;;;;;;;110.85;39.58;;;;;;;;;;4995607;28;20450;-72
2023/09/11 00:44:40;;;;;;;115.38;39.22;;;;;;;;;;4995692;28;20050;-72
2023/09/11 00:47:06;;;;;;;105.30;37.58;;;;;;;;;;4995620;28;20050;-72
2023/09/11 00:49:32;;;;;;;99.88;37.67;;;;;;;;;;4995356;28;20069;-73
2023/09/11 00:51:59;;;;;;;107.53;38.17;;;;;;;;;;4996562;28;20046;-73
2023/09/11 00:54:26;;;;;;;105.93;38.58;;;;;;;;;;4998993;28;20069;-72
2023/09/11 00:56:52;;;;;;;113.25;38.92;;;;;;;;;;4999324;28;20043;-73
2023/09/11 00:59:18;;;;;;;103.22;39.25;;;;;;;;;;4996802;28;20082;-73
2023/09/11 01:01:46;;;;;;;107.25;39.97;;;;;;;;;;4994444;28;20065;-72
2023/09/11 01:04:12;;;;;;;97.97;38.33;;;;;;;;;;4995516;28;20132;-73
2023/09/11 01:06:38;;;;;;;;;;;;;;;;;;4996050;28;20062;-73
2023/09/11 01:09:05;;;;;;;98.85;38.17;;;;;;;;;;4980221;28;19922;-73
2023/09/11 01:11:31;;;;;;;98.10;38.78;;;;;;;;;;4997312;28;20050;-73
2023/09/11 01:13:58;;;;;;;113.80;38.45;;;;;;;;;;4995865;28;20046;-72
2023/09/11 01:16:30;;;;;;;108.28;38.90;;;;;;;;;;4994541;28;20054;-71
2023/09/11 01:19:04;;;;;;;98.25;38.80;;;;;;;;;;4995397;28;20058;-72
2023/09/11 01:21:39;;;;;;;103.20;39.67;;;;;;;;;;4993693;28;20057;-72
2023/09/11 01:24:21;;;;;;;115.05;39.83;;;;;;;;;;4994191;28;20100;-72
2023/09/11 01:26:56;;;;;;;108.15;40.15;;;;;;;;;;4993433;28;20054;-72
2023/09/11 01:56:23;;;;;;;110.80;41.65;;;;;;;;;;5214667;23;20077;-74
2023/09/11 01:58:49;;;;;;;104.38;40.63;;;;;;;;;;5011706;28;20135;-73
2023/09/11 02:01:15;;;;;;;106.22;39.03;;;;;;;;;;5011519;28;20057;-73
2023/09/11 02:03:41;;;;;;;105.60;39.38;;;;;;;;;;5012984;28;20053;-73
2023/09/11 02:06:07;;;;;;;107.82;39.60;;;;;;;;;;5012837;28;20406;-73
2023/09/11 02:08:33;;;;;;;112.05;40.83;;;;;;;;;;5013137;28;20042;-74
2023/09/11 02:10:59;;;;;;;116.82;41.85;;;;;;;;;;4997515;28;20050;-74
2023/09/11 02:13:25;;;;;;;117.60;40.17;;;;;;;;;;5015450;28;20206;-73
2023/09/11 02:15:51;;;;;;;110.25;41.15;;;;;;;;;;5018002;28;20042;-74
2023/09/11 02:18:18;;;;;;;127.22;41.53;;;;;;;;;;5017857;28;20128;-74
2023/09/11 02:20:47;;;;;;;;;;;;;;;;;;5017814;28;20085;-75
2023/09/11 02:23:14;;;;;;;113.57;40.22;;;;;;;;;;5015278;28;19921;-75
2023/09/11 02:25:41;;;;;;;114.45;40.03;;;;;;;;;;5017292;28;20046;-74
2023/09/11 02:28:07;;;;;;;122.82;42.03;;;;;;;;;;5015941;28;20085;-75
2023/09/11 02:30:34;;;;;;;120.55;41.63;;;;;;;;;;5016000;28;20056;-75
2023/09/11 02:33:00;;;;;;;113.13;39.75;;;;;;;;;;5017480;28;20061;-75
2023/09/11 02:35:26;;;;;;;109.32;41.42;;;;;;;;;;5016063;28;20054;-75
2023/09/11 02:37:52;;;;;;;117.97;42.50;;;;;;;;;;5016021;28;20133;-76
2023/09/11 02:40:18;;;;;;;115.07;40.78;;;;;;;;;;5016298;28;20116;-74
2023/09/11 02:42:44;;;;;;;113.43;40.08;;;;;;;;;;5015922;28;20096;-75
2023/09/11 02:45:10;;;;;;;121.07;42.17;;;;;;;;;;5014821;28;20050;-75
2023/09/11 02:47:36;;;;;;;108.95;42.35;;;;;;;;;;5016368;28;20050;-74
2023/09/11 02:50:03;;;;;;;126.32;43.53;;;;;;;;;;5015306;28;20050;-74
2023/09/11 02:52:29;;;;;;;113.90;43.47;;;;;;;;;;5015667;28;20517;-74
2023/09/11 02:54:55;;;;;;;111.43;41.28;;;;;;;;;;5016628;28;20057;-75
2023/09/11 02:57:21;;;;;;;113.53;41.60;;;;;;;;;;5015143;28;20108;-75
2023/09/11 02:59:47;;;;;;;122.13;42.95;;;;;;;;;;5017992;28;20046;-75
2023/09/11 03:02:13;;;;;;;110.20;43.22;;;;;;;;;;5020018;28;20046;-75
2023/09/11 03:04:39;;;;;;;102.55;41.90;;;;;;;;;;5000362;28;20058;-76
2023/09/11 03:07:05;;;;;;;116.45;43.13;;;;;;;;;;5016957;28;20050;-75
2023/09/11 03:09:31;;;;;;;111.68;43.15;;;;;;;;;;5016473;28;20048;-75
2023/09/11 03:11:57;;;;;;;141.77;45.42;;;;;;;;;;5015624;28;20050;-74
2023/09/11 03:14:24;;;;;;;115.63;44.38;;;;;;;;;;5016067;28;20046;-75
2023/09/11 03:16:51;;;;;;;115.20;43.13;;;;;;;;;;4998884;28;20041;-74
2023/09/11 03:19:19;;;;;;;120.25;43.58;;;;;;;;;;4998263;28;20050;-74
2023/09/11 03:21:45;;;;;;;115.95;45.65;;;;;;;;;;5015827;28;20058;-75
2023/09/11 03:24:11;;;;;;;116.40;45.20;;;;;;;;;;5014776;28;20049;-75
2023/09/11 03:26:37;;;;;;;123.28;45.50;;;;;;;;;;5015441;28;20045;-73
2023/09/11 03:29:03;;;;;;;120.60;45.50;;;;;;;;;;5014732;28;20407;-73
2023/09/11 03:31:29;;;;;;;135.80;45.47;;;;;;;;;;5014294;28;20104;-74
2023/09/11 03:33:55;;;;;;;118.82;45.45;;;;;;;;;;5015498;28;20390;-74
2023/09/11 03:36:21;;;;;;;111.63;45.25;;;;;;;;;;5013967;28;20089;-73
2023/09/11 03:38:47;;;;;;;124.53;46.50;;;;;;;;;;5014528;28;20048;-73
2023/09/11 03:41:15;;;;;;;119.68;45.25;;;;;;;;;;5015226;28;20054;-74
2023/09/11 03:43:41;;;;;;;126.43;44.90;;;;;;;;;;5014812;28;20050;-74
2023/09/11 03:46:07;;;;;;;128.88;46.70;;;;;;;;;;5017228;28;20065;-74
2023/09/11 03:48:33;;;;;;;119.43;45.80;;;;;;;;;;5015768;28;20042;-74
2023/09/11 03:50:59;;;;;;;123.95;44.22;;;;;;;;;;4998050;28;20509;-74
2023/09/11 03:53:25;;;;;;;120.95;46.38;;;;;;;;;;5015088;28;20152;-73
2023/09/11 03:55:51;;;;;;;122.18;44.65;;;;;;;;;;5014278;28;20072;-74
2023/09/11 03:58:17;;;;;;;120.10;45.70;;;;;;;;;;5014885;28;20142;-74
2023/09/11 04:00:44;;;;;;;125.35;48.03;;;;;;;;;;5013701;28;20143;-75
2023/09/11 04:03:10;;;;;;;121.45;45.80;;;;;;;;;;5014946;28;20054;-74
2023/09/11 04:05:36;;;;;;;124.85;45.85;;;;;;;;;;5013787;28;20050;-74
2023/09/11 04:08:02;;;;;;;116.70;43.85;;;;;;;;;;5023171;28;20049;-73
2023/09/11 04:10:29;;;;;;;125.35;45.55;;;;;;;;;;5024704;28;20042;-73
2023/09/11 04:12:55;;;;;;;131.50;43.88;;;;;;;;;;5014337;28;20060;-73
2023/09/11 04:15:22;;;;;;;117.05;44.75;;;;;;;;;;5015156;28;20069;-74
2023/09/11 04:17:48;;;;;;;114.63;45.17;;;;;;;;;;5014650;28;20054;-73
2023/09/11 04:20:14;;;;;;;127.07;43.88;;;;;;;;;;5013353;28;20383;-73
2023/09/11 04:22:40;;;;;;;119.75;43.80;;;;;;;;;;5013240;28;20042;-73
2023/09/11 04:25:06;;;;;;;118.72;44.47;;;;;;;;;;5013473;28;20050;-74
2023/09/11 04:27:32;;;;;;;137.38;45.30;;;;;;;;;;5014315;28;20060;-74
2023/09/11 04:29:59;;;;;;;133.70;44.63;;;;;;;;;;5013322;28;20517;-74
2023/09/11 04:32:25;;;;;;;125.45;44.50;;;;;;;;;;5012806;28;20053;-74
2023/09/11 04:34:51;;;;;;;122.07;44.13;;;;;;;;;;5012862;28;20058;-74
2023/09/11 04:37:18;;;;;;;124.50;45.25;;;;;;;;;;5013644;28;20049;-75
2023/09/11 04:39:44;;;;;;;129.85;47.03;;;;;;;;;;5013828;28;20052;-74
2023/09/11 04:42:10;;;;;;;127.43;45.40;;;;;;;;;;5014413;28;20049;-74
2023/09/11 04:44:37;;;;;;;133.73;46.60;;;;;;;;;;5012778;28;20052;-74
2023/09/11 04:47:03;;;;;;;129.32;45.25;;;;;;;;;;5012874;28;20050;-74
2023/09/11 04:49:29;;;;;;;118.65;45.42;;;;;;;;;;5012469;28;20133;-74
2023/09/11 04:51:55;;;;;;;117.53;44.90;;;;;;;;;;5012942;28;20050;-73
2023/09/11 04:54:21;;;;;;;132.50;46.10;;;;;;;;;;5013991;28;20107;-73
2023/09/11 04:56:47;;;;;;;121.60;43.92;;;;;;;;;;5012288;28;20469;-74
2023/09/11 04:59:14;;;;;;;131.02;44.03;;;;;;;;;;5012327;28;20053;-73
2023/09/11 05:01:40;;;;;;;124.60;44.33;;;;;;;;;;5013427;28;20046;-74
2023/09/11 05:04:06;;;;;;;112.63;45.38;;;;;;;;;;5014402;28;20049;-73
2023/09/11 05:06:32;;;;;;;120.35;43.58;;;;;;;;;;5013681;28;20050;-73
2023/09/11 05:08:59;;;;;;;113.32;43.70;;;;;;;;;;5014456;28;20053;-74
2023/09/11 05:11:25;;;;;;;119.35;44.25;;;;;;;;;;5014288;28;20042;-74
2023/09/11 05:13:51;;;;;;;131.43;42.90;;;;;;;;;;5014438;28;20069;-74
2023/09/11 05:16:18;;;;;;;114.50;43.05;;;;;;;;;;5018982;28;20054;-73
2023/09/11 05:18:44;;;;;;;113.85;42.67;;;;;;;;;;5015117;28;20085;-73
2023/09/11 05:21:10;;;;;;;113.00;41.53;;;;;;;;;;5014078;28;20049;-71
2023/09/11 05:23:36;;;;;;;117.63;43.13;;;;;;;;;;5012475;28;20050;-74
2023/09/11 05:26:03;;;;;;;126.88;44.42;;;;;;;;;;5013492;28;20096;-74
2023/09/11 05:28:29;;;;;;;111.25;41.55;;;;;;;;;;5013261;28;20417;-72
2023/09/11 05:30:55;;;;;;;133.82;42.33;;;;;;;;;;5012731;28;20046;-73
2023/09/11 05:33:21;;;;;;;118.15;41.47;;;;;;;;;;5013750;28;20061;-73
2023/09/11 05:35:48;;;;;;;127.80;41.78;;;;;;;;;;5011920;28;20052;-73
2023/09/11 05:38:14;;;;;;;130.50;43.72;;;;;;;;;;4980104;28;20057;-73
2023/09/11 05:40:40;;;;;;;126.95;43.72;;;;;;;;;;5012830;28;20512;-74
2023/09/11 05:43:06;;;;;;;112.45;42.03;;;;;;;;;;5013211;28;20057;-74
2023/09/11 05:45:32;;;;;;;122.22;42.60;;;;;;;;;;5012121;28;20050;-72
2023/09/11 05:47:58;;;;;;;128.30;42.42;;;;;;;;;;4995613;28;20417;-74
2023/09/11 05:50:24;;;;;;;125.78;42.90;;;;;;;;;;5013738;28;20157;-74
2023/09/11 05:52:50;;;;;;;123.40;42.15;;;;;;;;;;5012854;28;20042;-73
2023/09/11 05:55:17;;;;;;;127.95;42.28;;;;;;;;;;5013322;28;20050;-73
2023/09/11 05:57:43;;;;;;;112.43;43.25;;;;;;;;;;5011320;28;20584;-72
2023/09/11 06:00:12;;;;;;;111.80;41.50;;;;;;;;;;5011659;28;20042;-73
2023/09/11 06:02:40;;;;;;;125.88;43.30;;;;;;;;;;5011432;28;20056;-73
2023/09/11 06:05:07;;;;;;;114.05;42.95;;;;;;;;;;5011920;28;20046;-72
2023/09/11 06:07:33;;;;;;;114.13;44.08;;;;;;;;;;5012098;28;20427;-72
2023/09/11 06:09:59;;;;;;;129.57;44.58;;;;;;;;;;5012461;28;20038;-73
2023/09/11 06:12:29;;;;;;;126.95;43.88;;;;;;;;;;5012605;28;20054;-73
2023/09/11 06:14:55;;;;;;;128.55;43.63;;;;;;;;;;5012243;28;20082;-74
2023/09/11 06:17:21;;;;;;;117.95;43.42;;;;;;;;;;5011933;28;20128;-74
2023/09/11 06:19:47;;;;;;;110.97;42.63;;;;;;;;;;5014452;28;20057;-74
2023/09/11 06:22:13;;;;;;;131.52;45.03;;;;;;;;;;5017994;28;20054;-75
2023/09/11 06:24:40;;;;;;;127.43;44.45;;;;;;;;;;5012781;28;20096;-75
2023/09/11 06:27:07;;;;;;;129.98;45.70;;;;;;;;;;5011660;28;20057;-75
2023/09/11 06:29:33;;;;;;;120.47;44.78;;;;;;;;;;5013062;28;20180;-74
2023/09/11 06:31:59;;;;;;;127.30;46.22;;;;;;;;;;5012948;28;20132;-73
2023/09/11 06:34:27;;;;;;;128.93;44.38;;;;;;;;;;5011945;28;20050;-73
2023/09/11 06:36:53;;;;;;;134.85;46.53;;;;;;;;;;5012623;28;20046;-73
2023/09/11 06:39:20;;;;;;;135.30;47.15;;;;;;;;;;5012135;28;20042;-74
2023/09/11 06:41:47;;;;;;;121.53;44.97;;;;;;;;;;5012293;28;20049;-74
2023/09/11 06:44:13;;;;;;;137.65;46.67;;;;;;;;;;5011615;28;20472;-74
2023/09/11 06:46:39;;;;;;;138.43;47.75;;;;;;;;;;4996044;28;20050;-74
2023/09/11 06:49:05;;;;;;;133.85;46.67;;;;;;;;;;5011319;28;20521;-73
2023/09/11 06:51:31;;;;;;;127.78;46.60;;;;;;;;;;5012882;28;20050;-73
2023/09/11 06:53:57;;;;;;;124.25;48.53;;;;;;;;;;5011290;28;20100;-72
2023/09/11 06:56:23;;;;;;;126.95;46.65;;;;;;;;;;5013797;28;20089;-74
2023/09/11 06:58:49;;;;;;;131.13;48.00;;;;;;;;;;5016965;28;20401;-75
2023/09/11 07:01:15;;;;;;;126.90;48.30;;;;;;;;;;5017528;28;20093;-74
2023/09/11 07:03:42;;;;;;;139.02;49.90;;;;;;;;;;5016123;28;20084;-75
2023/09/11 07:06:08;;;;;;;128.52;48.97;;;;;;;;;;5016547;28;20099;-71
2023/09/11 07:08:34;;;;;;;130.95;47.90;;;;;;;;;;5016948;28;20084;-72
2023/09/11 07:11:00;;;;;;;133.43;49.25;;;;;;;;;;5015018;28;20459;-74
2023/09/11 07:13:26;;;;;;;136.80;48.45;;;;;;;;;;5016112;28;20137;-75
2023/09/11 07:15:56;;;;;;;128.20;49.20;;;;;;;;;;5015689;28;20045;-74
2023/09/11 07:18:22;;;;;;;124.47;48.08;;;;;;;;;;5014695;28;20097;-74
2023/09/11 07:20:51;;;;;;;126.72;47.55;;;;;;;;;;5014553;28;20494;-73
2023/09/11 07:23:17;;;;;;;137.15;48.42;;;;;;;;;;5015784;28;20490;-74
2023/09/11 07:25:43;;;;;;;117.75;49.00;;;;;;;;;;5020648;28;20402;-74
2023/09/11 07:28:13;;;;;;;117.65;47.97;;;;;;;;;;5019625;28;20054;-73
2023/09/11 07:30:39;;;;;;;130.75;50.08;;;;;;;;;;5015250;28;20042;-74
2023/09/11 07:33:05;;;;;;;137.27;48.20;;;;;;;;;;5014165;28;20052;-73
2023/09/11 07:35:31;;;;;;;120.55;48.45;;;;;;;;;;4998139;28;20060;-73
2023/09/11 07:37:57;;;;;;;128.48;45.30;;;;;;;;;;5015124;28;20405;-74
2023/09/11 07:40:24;;;;;;;103.47;44.40;;;;;;;;;;5015197;28;20112;-73
2023/09/11 07:42:52;;;;;;;116.95;45.78;;;;;;;;;;5015052;28;20108;-74
2023/09/11 07:45:18;;;;;;;127.82;45.88;;;;;;;;;;5014190;28;20096;-74
2023/09/11 07:47:44;;;;;;;104.82;43.35;;;;;;;;;;5015255;28;20045;-74
2023/09/11 07:50:11;;;;;;;118.45;44.60;;;;;;;;;;5014782;28;20190;-73
2023/09/11 07:52:37;;;;;;;123.93;43.92;;;;;;;;;;5015002;28;20458;-74
2023/09/11 07:55:03;;;;;;;111.85;43.50;;;;;;;;;;5014529;28;20406;-74
2023/09/11 07:57:30;;;;;;;122.63;45.50;;;;;;;;;;5014970;28;20434;-75
2023/09/11 07:59:57;;;;;;;114.22;44.30;;;;;;;;;;5014595;28;20045;-75
2023/09/11 08:02:23;;;;;;;102.88;43.63;;;;;;;;;;5015166;28;20046;-73
2023/09/11 08:04:49;;;;;;;111.75;43.45;;;;;;;;;;5015017;28;20049;-75
2023/09/11 08:07:15;;;;;;;113.07;43.53;;;;;;;;;;5014155;28;20038;-71
2023/09/11 08:09:41;;;;;;;114.47;42.67;;;;;;;;;;5012893;28;20089;-72
2023/09/11 08:12:07;;;;;;;113.72;41.47;;;;;;;;;;5014513;28;20061;-73
2023/09/11 08:14:33;;;;;;;99.57;42.38;;;;;;;;;;4997605;28;20056;-73
2023/09/11 08:16:59;;;;;;;107.35;40.97;;;;;;;;;;4980938;28;20060;-73
2023/09/11 08:19:25;;;;;;;109.15;42.92;;;;;;;;;;5014497;28;20042;-73
2023/09/11 08:21:54;;;;;;;97.82;40.88;;;;;;;;;;5013391;28;20049;-72
2023/09/11 08:24:20;;;;;;;103.25;43.28;;;;;;;;;;5015426;28;20417;-74
2023/09/11 08:26:46;;;;;;;108.30;41.42;;;;;;;;;;4999281;28;20077;-73
2023/09/11 08:29:15;;;;;;;114.35;42.35;;;;;;;;;;5000658;28;20042;-73
2023/09/11 08:31:41;;;;;;;103.28;42.63;;;;;;;;;;5019557;28;20129;-73
2023/09/11 08:34:07;;;;;;;97.97;39.53;;;;;;;;;;4999175;28;20089;-72
2023/09/11 08:36:33;;;;;;;88.65;37.85;;;;;;;;;;5013167;28;20095;-74
2023/09/11 08:38:59;;;;;;;103.85;39.20;;;;;;;;;;5013130;28;20104;-73
2023/09/11 08:41:26;;;;;;;105.10;39.13;;;;;;;;;;4996983;28;20067;-73
2023/09/11 08:43:52;;;;;;;;;;;;;;;;;;5013901;28;20151;-74
2023/09/11 08:46:19;;;;;;;85.70;35.65;;;;;;;;;;5012841;28;19933;-73
2023/09/11 08:48:45;;;;;;;86.57;35.10;;;;;;;;;;5014119;28;20045;-74
2023/09/11 08:51:21;;;;;;;92.53;35.88;;;;;;;;;;5012391;28;20058;-73
2023/09/11 08:53:50;;;;;;;86.93;34.05;;;;;;;;;;5014265;28;20081;-72
2023/09/11 08:56:16;;;;;;;76.75;33.78;;;;;;;;;;5012582;28;20053;-73
2023/09/11 08:58:43;;;;;;;76.72;32.97;;;24.80;99.90;;;;;;5012561;28;20064;-72
2023/09/11 09:01:09;;;;;;;80.20;32.13;;;24.90;99.90;;;;;;5013674;28;20049;-74
2023/09/11 09:03:35;;;;;;;;;;;24.90;99.90;;;;;;5014199;28;20056;-72
2023/09/11 09:06:02;;;;;;;80.40;30.52;;;25.00;99.90;;;;;;5013176;28;20008;-73
2023/09/11 09:08:28;;;;;;;76.30;31.55;;;25.00;99.90;;;;;;5012819;28;20056;-72
2023/09/11 09:10:54;;;;;;;69.03;29.48;;;25.00;99.90;;;;;;5013637;28;20050;-73
2023/09/11 09:13:20;;;;;;;73.87;29.93;;;25.10;99.90;;;;;;5012124;28;20061;-72
2023/09/11 09:15:45;;;;;;;70.53;29.33;;;25.20;99.90;;;;;;5012688;28;20045;-73
2023/09/11 09:18:11;;;;;;;71.90;30.60;;;25.20;99.90;;;;;;5011965;28;20050;-72
2023/09/11 09:20:38;;;;;;;74.80;32.25;;;25.30;99.90;;;;;;5013692;28;20637;-73
2023/09/11 09:23:06;;;;;;;74.35;30.95;;;25.30;99.90;;;;;;5013136;28;20046;-73
2023/09/11 09:25:31;;;;;;;70.90;29.40;;;25.40;99.90;;;;;;5012203;28;20058;-73
2023/09/11 09:27:58;;;;;;;64.60;30.10;;;25.40;99.90;;;;;;5013689;28;20486;-72
2023/09/11 09:30:26;;;;;;;69.15;29.45;;;25.40;99.90;;;;;;5014961;28;20486;-73
2023/09/11 09:32:52;;;;;;;66.05;30.50;;;25.50;99.90;;;;;;5018048;28;20042;-72
2023/09/11 09:35:22;;;;;;;63.17;29.98;;;25.50;99.90;;;;;;4996618;28;20054;-72
2023/09/11 09:37:55;;;;;;;68.07;30.77;;;25.60;99.90;;;;;;5013295;28;20501;-72
2023/09/11 09:40:32;;;;;;;76.07;30.65;;;25.60;99.90;;;;;;5012877;28;20417;-72
2023/09/11 09:42:59;;;;;;;68.68;30.65;;;25.70;99.90;;;;;;5012204;28;20157;-72
2023/09/11 09:45:43;;;;;;;;;;;25.70;99.90;;;;;;5013106;28;20137;-73
2023/09/11 09:48:18;;;;;;;71.97;30.20;;;25.70;99.90;;;;;;5011719;28;19925;-73
2023/09/11 09:51:16;;;;;;;67.95;32.17;;;25.70;99.90;;;;;;5013145;28;20049;-72
2023/09/11 09:53:44;;;;;;;69.57;31.20;;;25.70;99.90;;;;;;4974051;28;20095;-71
2023/09/11 09:56:12;;;;;;;71.50;31.85;;;25.80;99.90;;;;;;4995283;28;20053;-73
2023/09/11 09:58:45;;;;;;;74.97;29.30;;;25.80;99.90;;;;;;5011901;28;20058;-72
2023/09/11 10:01:13;;;;;;;76.25;30.65;;;25.80;99.90;;;;;;5012647;28;20395;-73
2023/09/11 10:03:52;;;;;;;67.78;30.27;;;25.90;99.90;;;;;;5011550;28;20050;-71
2023/09/11 10:06:22;;;;;;;69.28;28.52;;;26.00;99.90;;;;;;4995041;28;20054;-73
2023/09/11 10:09:08;;;;;;;68.18;30.52;;;26.00;99.90;;;;;;4995616;28;20054;-75
2023/09/11 10:11:35;;;;;;;65.68;29.00;;;26.10;99.90;;;;;;4995213;28;20108;-73
2023/09/11 10:14:02;;;;;;;63.10;28.55;;;26.20;99.90;;;;;;5011742;28;20042;-73
2023/09/11 10:16:30;;;;;;;79.57;31.73;;;26.20;99.90;;;;;;4995115;28;20049;-73
2023/09/11 10:18:58;;;;;;;71.05;30.20;;;26.20;99.90;;;;;;5012662;28;20081;-73
2023/09/11 10:21:25;;;;;;;59.83;28.90;;;26.20;99.90;;;;;;5012397;28;20104;-73
2023/09/11 10:23:52;;;;;;;66.97;29.08;;;26.30;99.90;;;;;;5011890;28;20117;-72
2023/09/11 10:26:27;;;;;;;65.00;29.80;;;26.40;99.90;;;;;;5011766;28;20100;-73
2023/09/11 10:28:58;;;;;;;57.03;26.70;;;26.40;99.90;;;;;;4998811;28;20046;-72
2023/09/11 10:31:28;;;;;;;63.75;28.65;;;26.50;99.90;;;;;;5019408;28;20470;-71
2023/09/11 10:34:00;;;;;;;66.47;27.65;;;26.50;99.90;;;;;;5026250;28;20072;-72
2023/09/11 10:36:32;;;;;;;65.35;29.05;;;26.60;99.90;;;;;;5021536;28;20046;-72
2023/09/11 10:39:00;;;;;;;70.15;31.08;;;26.60;99.90;;;;;;5016614;28;20096;-73
2023/09/11 10:41:26;;;;;;;73.75;30.10;;;26.60;99.90;;;;;;5016179;28;20045;-73
2023/09/11 10:43:53;;;;;;;71.25;30.10;;;26.70;99.90;;;;;;5016417;28;20129;-73
2023/09/11 10:46:21;;;;;;;76.75;28.60;;;26.70;99.90;;;;;;5015436;28;20398;-73
2023/09/11 10:48:50;;;;;;;77.05;32.63;;;26.70;99.90;;;;;;5015541;28;20057;-72
2023/09/11 10:51:16;;;;;;;68.55;31.80;;;26.70;99.90;;;;;;5015123;28;20141;-73
2023/09/11 10:53:43;;;;;;;74.55;35.38;;;26.80;99.90;;;;;;5015355;28;20057;-73
2023/09/11 10:56:10;;;;;;;72.80;33.45;;;26.80;99.90;;;;;;5015250;28;20050;-73
2023/09/11 10:58:37;;;;;;;77.75;34.10;;;26.80;99.90;;;;;;5014051;28;20490;-73
2023/09/11 11:01:05;;;;;;;79.05;33.55;;;26.80;99.90;;;;;;5015424;28;20053;-73
2023/09/11 11:03:32;;;;;;;74.35;34.85;;;26.80;99.90;;;;;;5014917;28;20391;-73
2023/09/11 11:06:02;;;;;;;75.57;34.83;;;26.80;99.90;;;;;;4998603;28;20057;-72
2023/09/11 11:08:36;;;;;;;69.00;32.92;;;26.90;99.90;;;;;;4998085;28;20053;-72
2023/09/11 11:11:02;;;;;;;63.78;28.63;;;26.90;99.90;;;;;;5015881;28;20165;-70
2023/09/11 11:13:29;;;;;;;78.53;31.88;;;27.00;99.90;;;;;;5015800;28;20041;-71
2023/09/11 11:16:23;;;;;;;67.20;30.70;;;27.00;99.90;;;;;;5015170;28;20045;-72
2023/09/11 11:18:51;;;;;;;61.25;28.92;;;27.00;99.90;;;;;;5015079;28;20424;-73
2023/09/11 11:21:18;;;;;;;69.07;30.88;;;27.10;99.90;;;;;;5014335;28;20050;-73
2023/09/11 11:23:58;;;;;;;69.65;27.85;;;27.10;99.90;;;;;;5015091;28;20050;-73
2023/09/11 11:26:25;;;;;;;62.10;27.77;;;27.10;99.90;;;;;;5015642;28;20140;-73
2023/09/11 11:28:51;;;;;;;68.78;27.83;;;27.00;99.90;;;;;;4998430;28;20138;-72
2023/09/11 11:31:18;;;;;;;;;;;27.10;99.90;;;;;;5014867;28;20094;-72
2023/09/11 11:33:50;;;;;;;63.22;28.27;;;27.10;99.90;;;;;;5015285;28;19921;-75
2023/09/11 11:36:17;;;;;;;77.25;32.55;;;27.10;99.90;;;;;;5018582;28;20188;-73
2023/09/11 11:38:43;;;;;;;79.50;32.47;;;27.10;99.90;;;;;;5019244;28;20038;-73
2023/09/11 11:41:10;;;;;;;71.47;31.58;;;27.20;99.90;;;;;;5016087;28;20042;-73
2023/09/11 11:43:36;;;;;;;61.78;25.83;;;27.20;99.90;;;;;;5013670;28;20085;-71
2023/09/11 11:46:06;;;;;;;50.83;21.08;;;27.20;99.90;;;;;;5014124;28;20085;-73
2023/09/11 11:48:34;;;;;;;42.08;20.55;;;27.20;99.90;;;;;;5014716;28;20057;-73
2023/09/11 11:50:59;;;;;;;45.05;20.90;;;27.30;99.90;;;;;;5015582;28;20049;-72
2023/09/11 11:53:26;;;;;;;41.30;19.25;;;27.20;99.90;;;;;;5014790;28;20375;-74
2023/09/11 11:55:55;;;;;;;49.22;17.70;;;27.30;99.90;;;;;;5013979;28;20069;-75
2023/09/11 11:58:21;;;;;;;43.28;18.70;;;27.30;99.90;;;;;;4997441;28;20073;-73
2023/09/11 12:01:04;;;;;;;46.50;19.05;;;27.30;99.90;;;;;;5014715;28;20072;-72
2023/09/11 12:03:32;;;;;;;38.92;16.45;;;27.40;99.90;;;;;;5013800;28;20129;-74
2023/09/11 12:06:00;;;;;;;39.30;16.20;;;27.40;99.90;;;;;;5013593;28;20517;-73
2023/09/11 12:08:27;;;;;;;35.05;16.52;;;27.50;99.90;;;;;;5014463;28;20048;-74
2023/09/11 12:10:53;;;;;;;40.00;16.58;;;27.50;99.90;;;;;;4997366;28;20132;-73
2023/09/11 12:13:22;;;;;;;32.35;16.90;;;27.60;99.90;;;;;;4997425;28;20050;-73
2023/09/11 12:15:56;;;;;;;36.83;16.27;;;27.60;99.90;;;;;;4996932;28;20056;-74
2023/09/11 12:18:23;;;;;;;45.65;16.30;;;27.60;99.90;;;;;;5013505;28;20059;-74
2023/09/11 12:20:53;;;;;;;37.00;16.02;;;27.60;99.90;;;;;;5013351;28;20135;-73
2023/09/11 12:23:20;;;;;;;37.38;16.85;;;27.60;99.90;;;;;;5014590;28;20104;-75
2023/09/11 12:25:46;;;;;;;42.50;16.67;;;27.50;99.90;;;;;;5013069;28;20053;-75
2023/09/11 12:28:12;;;;;;;37.60;17.58;;;27.50;99.90;;;;;;5014429;28;20120;-75
2023/09/11 12:30:40;;;;;;;48.20;19.00;;;27.50;99.90;;;;;;5013892;28;20439;-72
2023/09/11 12:33:10;;;;;;;38.75;18.20;;;27.60;99.90;;;;;;5013533;28;20057;-73
2023/09/11 12:35:36;;;;;;;36.03;16.58;;;27.60;99.90;;;;;;5012887;28;20125;-74
2023/09/11 12:38:03;;;;;;;44.25;17.35;;;27.60;99.90;;;;;;5014258;28;20054;-72
2023/09/11 12:40:29;;;;;;;37.47;19.30;;;27.60;99.90;;;;;;5014899;28;20049;-72
2023/09/11 12:42:55;;;;;;;;;;;27.70;99.90;;;;;;5018812;28;20073;-73
2023/09/11 12:45:21;;;;;;;47.70;19.38;;;27.70;99.90;;;;;;5029900;28;20373;-71
2023/09/11 12:47:47;;;;;;;40.20;18.90;;;27.80;99.90;;;;;;5012814;28;20058;-73
2023/09/11 12:50:13;;;;;;;;;;;27.70;99.90;;;;;;5014451;28;20077;-73
2023/09/11 12:52:39;;;;;;;35.38;16.77;;;27.80;99.90;;;;;;5013633;28;19967;-75
2023/09/11 12:55:05;;;;;;;34.13;15.57;;;27.80;99.90;;;;;;5012493;28;20050;-72
2023/09/11 12:57:31;;;;;;;36.65;15.00;;;27.80;99.90;;;;;;5014028;28;20058;-73
2023/09/11 12:59:58;;;;;;;;;;;27.90;99.90;;;;;;5013307;28;20054;-72
2023/09/11 13:02:31;;;;;;;34.83;11.57;;;27.90;99.90;;;;;;5012833;28;19921;-73
2023/09/11 13:04:57;;;;;;;27.52;10.88;;;27.80;99.90;;;;;;5013846;28;20053;-73
2023/09/11 13:07:23;;;;;;;;;;;27.80;99.90;;;;;;5014165;28;20054;-73
2023/09/11 13:09:49;;;;;;;24.45;10.98;;;27.70;99.90;;;;;;5013306;28;20023;-73
2023/09/11 13:12:15;;;;;;;30.60;9.93;;;27.80;99.90;;;;;;5012707;28;20038;-73
2023/09/11 13:14:41;;;;;;;23.55;9.68;;;27.90;99.90;;;;;;5013394;28;20060;-74
2023/09/11 13:17:07;;;;;;;28.45;10.13;;;27.90;99.90;;;;;;5013610;28;20050;-73
2023/09/11 13:19:32;;;;;;;26.65;9.63;;;27.90;99.90;;;;;;5012348;28;20050;-73
2023/09/11 13:21:58;;;;;;;25.65;9.40;;;27.90;99.90;;;;;;4995503;28;20480;-74
2023/09/11 13:24:24;;;;;;;26.85;9.65;;;27.80;99.90;;;;;;5012075;28;20118;-74
2023/09/11 13:26:50;;;;;;;25.45;9.70;;;27.80;99.90;;;;;;5013123;28;20050;-75
2023/09/11 13:29:15;;;;;;;19.48;10.18;;;27.70;99.90;;;;;;5012429;28;20120;-74
2023/09/11 13:31:41;;;;;;;27.20;9.70;;;27.80;99.90;;;;;;5011847;28;20458;-71
2023/09/11 13:34:08;;;;;;;25.75;10.68;;;27.80;99.90;;;;;;4996281;28;20045;-73
2023/09/11 13:36:35;;;;;;;26.98;11.38;;;27.70;99.90;;;;;;5012307;28;20054;-73
2023/09/11 13:39:00;;;;;;;;;;;27.70;99.90;;;;;;5013113;28;20046;-72
2023/09/11 13:41:26;;;;;;;27.92;10.70;;;27.70;99.90;;;;;;5014000;28;20015;-74
2023/09/11 13:43:52;;;;;;;28.25;10.40;;;27.80;99.90;;;;;;5012964;28;20153;-74
2023/09/11 13:46:18;;;;;;;21.40;9.07;;;27.70;99.90;;;;;;5014834;28;20054;-74
2023/09/11 13:48:43;;;;;;;18.85;7.75;;;27.70;99.90;;;;;;5016486;28;20037;-73
2023/09/11 13:51:09;;;;;;;20.08;7.55;;;27.70;99.90;;;;;;5012310;28;20049;-74
2023/09/11 13:53:35;;;;;;;19.10;7.20;;;27.70;99.90;;;;;;5013257;28;20104;-74
2023/09/11 13:56:01;;;;;;;24.83;8.30;;;27.60;99.90;;;;;;5013565;28;20053;-74
2023/09/11 13:58:26;;;;;;;26.83;8.57;;;27.60;99.90;;;;;;5014092;28;20062;-73